Sunburst, Montana
Current Conditions -  °F | °C
As of 1:00 PM on Tuesday 27 Jan 2015 (Local Time) from CYQL Reporting Station
Broken Clouds Broken Clouds  
Wind Chill: 13°   Ceiling: 27000
Heat Index: 13°   Visibility: 40mi
Dew Point: -3°   Wind: 18mph
Humidity: 33%   Direction: 240°WSW
Pressure: 29.78"   Gusts: NA
Location:  48.88°N, 111.91°W
Report Text: CYQL 272000Z 24016KT 40SM FEW180 BKN270 13/M03 A2978 RMK AC2CI5 SLP097 DENSITY ALT 3700FT
Loading
Personal Weather Stations






























Interactive Weather Map New forecast layout! Learn more

10-Day Weather Forecast

Advertisements
Track Severe Weather on mobile